createdAt,value
2022-11-28T00:00:58.476Z,3.93
2022-11-28T00:03:35.596Z,3.92
2022-11-28T00:06:08.787Z,3.89
2022-11-28T00:08:41.256Z,3.86
2022-11-28T00:11:14.772Z,3.74
2022-11-28T00:13:47.773Z,3.70
2022-11-28T00:16:21.930Z,3.59
2022-11-28T00:18:55.584Z,3.61
2022-11-28T00:21:27.569Z,3.50
2022-11-28T00:23:59.866Z,3.52
2022-11-28T00:26:34.827Z,3.45
2022-11-28T00:29:11.462Z,3.52
2022-11-28T00:31:45.347Z,3.57
2022-11-28T00:34:18.171Z,3.37
2022-11-28T00:36:50.678Z,3.37
2022-11-28T00:39:23.007Z,3.35
2022-11-28T00:41:54.690Z,3.35
2022-11-28T00:44:26.748Z,3.34
2022-11-28T00:46:58.414Z,3.41
2022-11-28T00:49:30.164Z,3.37
2022-11-28T00:52:01.793Z,3.43
2022-11-28T00:54:33.524Z,3.41
2022-11-28T00:57:05.200Z,3.31
2022-11-28T00:59:36.835Z,3.28
2022-11-28T01:02:08.615Z,3.26
2022-11-28T01:04:40.979Z,3.14
2022-11-28T01:07:13.069Z,3.18
2022-11-28T01:09:45.385Z,3.09
2022-11-28T01:12:17.765Z,3.08
2022-11-28T01:14:49.994Z,2.99
2022-11-28T01:17:22.018Z,3.00
2022-11-28T01:19:54.479Z,3.02
2022-11-28T01:22:26.238Z,3.01
2022-11-28T01:24:57.957Z,3.04
2022-11-28T01:27:29.619Z,3.01
2022-11-28T01:30:01.285Z,3.05
2022-11-28T01:32:32.987Z,3.02
2022-11-28T01:35:05.267Z,3.04
2022-11-28T01:37:37.024Z,3.03
2022-11-28T01:40:12.197Z,3.05
2022-11-28T01:42:44.062Z,3.13
2022-11-28T01:45:23.569Z,3.10
2022-11-28T01:47:58.022Z,3.10
2022-11-28T01:50:31.366Z,3.08
2022-11-28T01:53:08.441Z,3.06
2022-11-28T01:55:44.301Z,3.12
2022-11-28T01:58:16.809Z,3.10
2022-11-28T02:00:49.625Z,3.08
2022-11-28T02:03:27.141Z,3.11
2022-11-28T02:05:59.604Z,3.11
2022-11-28T02:08:35.434Z,3.15
2022-11-28T02:11:34.115Z,3.00
2022-11-28T02:14:16.566Z,3.02
2022-11-28T02:17:02.159Z,3.06
2022-11-28T02:20:13.415Z,3.06
2022-11-28T02:22:54.383Z,3.04
2022-11-28T02:25:44.786Z,2.98
2022-11-28T02:28:35.137Z,3.02
2022-11-28T02:31:16.790Z,3.04
2022-11-28T02:33:53.900Z,3.02
2022-11-28T02:36:31.883Z,3.03
2022-11-28T02:39:12.499Z,3.09
2022-11-28T02:41:47.993Z,2.98
2022-11-28T02:44:24.346Z,2.96
2022-11-28T02:47:00.865Z,2.99
2022-11-28T02:49:38.378Z,2.95
2022-11-28T02:52:14.537Z,2.97
2022-11-28T02:54:47.998Z,3.01
2022-11-28T02:57:20.165Z,2.98
2022-11-28T02:59:52.861Z,2.82
2022-11-28T03:02:28.999Z,2.90
2022-11-28T03:05:14.353Z,2.84
2022-11-28T03:08:07.128Z,2.81
2022-11-28T03:10:46.342Z,2.74
2022-11-28T03:13:24.747Z,2.75
2022-11-28T03:16:14.145Z,2.71
2022-11-28T03:18:55.273Z,2.56
2022-11-28T03:21:33.973Z,2.57
2022-11-28T03:24:13.503Z,2.57
2022-11-28T03:26:54.028Z,2.62
2022-11-28T03:29:32.802Z,2.59
2022-11-28T03:32:10.744Z,2.61
2022-11-28T03:34:47.075Z,2.62
2022-11-28T03:37:23.610Z,2.49
2022-11-28T03:40:01.578Z,2.44
2022-11-28T03:42:38.473Z,2.53
2022-11-28T03:45:15.014Z,2.49
2022-11-28T03:47:52.451Z,2.42
2022-11-28T03:50:30.376Z,2.42
2022-11-28T03:53:06.893Z,2.36
2022-11-28T03:55:44.814Z,2.30
2022-11-28T03:58:24.184Z,2.38
2022-11-28T04:01:04.761Z,2.32
2022-11-28T04:03:47.291Z,2.33
2022-11-28T04:06:24.077Z,2.32
2022-11-28T04:09:03.779Z,2.31
2022-11-28T04:11:40.666Z,2.20
2022-11-28T04:14:20.688Z,2.22
2022-11-28T04:16:59.355Z,2.29
2022-11-28T04:19:36.667Z,2.29
2022-11-28T04:22:15.838Z,2.22
2022-11-28T04:24:52.522Z,2.30
2022-11-28T04:27:28.979Z,2.21
2022-11-28T04:30:05.549Z,2.22
2022-11-28T04:32:42.162Z,2.19
2022-11-28T04:35:17.869Z,2.32
2022-11-28T04:37:53.224Z,2.24
2022-11-28T04:40:27.823Z,2.26
2022-11-28T04:43:03.459Z,2.28
2022-11-28T04:45:39.261Z,2.21
2022-11-28T04:48:11.356Z,2.21
2022-11-28T04:50:50.037Z,2.17
2022-11-28T04:53:29.225Z,2.28
2022-11-28T04:56:05.819Z,2.24
2022-11-28T04:58:41.443Z,2.20
2022-11-28T05:01:19.932Z,2.25
2022-11-28T05:03:51.989Z,2.15
2022-11-28T05:06:30.673Z,2.20
2022-11-28T05:09:03.143Z,2.22
2022-11-28T05:11:35.236Z,2.15
2022-11-28T05:14:07.746Z,2.26
2022-11-28T05:16:39.892Z,2.30
2022-11-28T05:19:11.621Z,2.26
2022-11-28T05:21:43.361Z,2.15
2022-11-28T05:24:15.593Z,2.17
2022-11-28T05:26:47.908Z,2.16
2022-11-28T05:29:19.699Z,2.11
2022-11-28T05:31:51.461Z,2.15
2022-11-28T05:34:23.185Z,2.21
2022-11-28T05:36:54.921Z,2.11
2022-11-28T05:39:27.001Z,2.10
2022-11-28T05:41:59.010Z,2.13
2022-11-28T05:44:33.653Z,2.16
2022-11-28T05:47:05.559Z,2.13
2022-11-28T05:49:37.742Z,2.15
2022-11-28T05:52:09.495Z,2.11
2022-11-28T05:54:41.207Z,1.97
2022-11-28T05:57:13.475Z,2.08
2022-11-28T05:59:45.649Z,2.13
2022-11-28T06:02:17.526Z,2.09
2022-11-28T06:04:49.785Z,2.10
2022-11-28T06:07:21.987Z,2.15
2022-11-28T06:09:54.046Z,2.13
2022-11-28T06:12:26.258Z,2.13
2022-11-28T06:14:59.164Z,2.11
2022-11-28T06:17:33.027Z,1.96
2022-11-28T06:20:05.395Z,2.00
2022-11-28T06:22:37.998Z,2.03
2022-11-28T06:25:10.054Z,2.03
2022-11-28T06:27:42.001Z,1.97
2022-11-28T06:30:14.837Z,1.90
2022-11-28T06:32:46.531Z,2.04
2022-11-28T06:35:18.582Z,2.01
2022-11-28T06:37:50.605Z,1.89
2022-11-28T06:40:25.763Z,1.97
2022-11-28T06:42:57.865Z,1.95
2022-11-28T06:45:29.808Z,2.06
2022-11-28T06:48:01.741Z,2.11
2022-11-28T06:50:35.088Z,1.93
2022-11-28T06:53:06.752Z,1.95
2022-11-28T06:55:38.592Z,1.98
2022-11-28T06:58:10.310Z,2.11
2022-11-28T07:00:42.143Z,2.18
2022-11-28T07:03:14.360Z,2.25
2022-11-28T07:05:46.618Z,2.17
2022-11-28T07:08:18.340Z,2.21
2022-11-28T07:10:50.098Z,2.18
2022-11-28T07:13:21.874Z,2.16
2022-11-28T07:15:56.588Z,2.17
2022-11-28T07:18:28.482Z,2.25
2022-11-28T07:21:00.837Z,2.31
2022-11-28T07:23:32.626Z,2.33
2022-11-28T07:26:06.574Z,2.32
2022-11-28T07:28:38.514Z,2.36
2022-11-28T07:31:12.316Z,2.40
2022-11-28T07:33:46.479Z,2.36
2022-11-28T07:36:20.508Z,2.53
2022-11-28T07:38:55.039Z,2.55
2022-11-28T07:41:27.371Z,2.59
2022-11-28T07:43:59.191Z,2.55
2022-11-28T07:46:33.086Z,2.56
2022-11-28T07:49:05.302Z,2.63
2022-11-28T07:51:37.055Z,2.54
2022-11-28T07:54:09.569Z,2.62
2022-11-28T07:59:33.359Z,2.73
2022-11-28T08:02:05.181Z,2.68
2022-11-28T08:04:37.429Z,2.68
2022-11-28T08:07:09.288Z,2.73
2022-11-28T08:09:41.264Z,2.80
2022-11-28T08:12:13.127Z,2.78
2022-11-28T08:14:45.233Z,2.78
2022-11-28T08:17:17.369Z,2.87
2022-11-28T08:19:49.170Z,2.88
2022-11-28T08:22:20.998Z,2.94
2022-11-28T08:24:52.665Z,2.94
2022-11-28T08:27:24.414Z,3.02
2022-11-28T08:29:56.162Z,3.07
2022-11-28T08:32:29.676Z,3.15
2022-11-28T08:35:01.501Z,3.03
2022-11-28T08:37:33.161Z,3.11
2022-11-28T08:40:05.840Z,3.17
2022-11-28T08:42:36.301Z,3.21
2022-11-28T08:45:11.727Z,3.24
2022-11-28T08:47:44.002Z,3.35
2022-11-28T08:50:15.683Z,3.40
2022-11-28T08:52:48.143Z,3.46
2022-11-28T08:55:25.084Z,3.60
2022-11-28T08:58:03.976Z,3.58
2022-11-28T09:00:35.896Z,3.60
2022-11-28T09:03:08.025Z,3.64
2022-11-28T09:05:39.765Z,3.68
2022-11-28T09:08:12.099Z,3.73
2022-11-28T09:10:45.309Z,3.81
2022-11-28T09:13:17.784Z,3.78
2022-11-28T09:15:52.615Z,3.71
2022-11-28T09:18:27.167Z,3.85
2022-11-28T09:21:04.603Z,3.95
2022-11-28T09:23:36.960Z,3.95
2022-11-28T09:26:12.439Z,4.02
2022-11-28T09:28:45.506Z,4.17
2022-11-28T09:31:19.734Z,4.31
2022-11-28T09:33:51.872Z,4.16
2022-11-28T09:36:25.585Z,4.16
2022-11-28T09:39:00.347Z,4.28
2022-11-28T09:41:51.709Z,4.31
2022-11-28T09:44:30.704Z,4.46
2022-11-28T09:47:06.960Z,4.50
2022-11-28T09:49:47.083Z,4.68
2022-11-28T09:52:29.999Z,4.88
2022-11-28T09:55:13.090Z,4.87
2022-11-28T09:57:48.010Z,4.92
2022-11-28T10:00:22.552Z,5.10
2022-11-28T10:03:11.081Z,5.23
2022-11-28T10:05:54.255Z,5.34
2022-11-28T10:08:38.823Z,5.23
2022-11-28T10:11:24.558Z,5.08
2022-11-28T10:14:08.447Z,5.25
2022-11-28T10:16:52.629Z,5.25
2022-11-28T10:19:53.339Z,5.53
2022-11-28T10:22:36.098Z,5.72
2022-11-28T10:25:17.548Z,5.70
2022-11-28T10:27:50.531Z,5.69
2022-11-28T10:30:26.143Z,5.75
2022-11-28T10:33:05.827Z,6.05
2022-11-28T10:35:44.014Z,6.15
2022-11-28T10:38:17.605Z,6.20
2022-11-28T10:40:57.158Z,6.26
2022-11-28T10:43:39.355Z,6.28
2022-11-28T10:46:31.295Z,6.35
2022-11-28T10:49:15.246Z,6.27
2022-11-28T10:52:01.611Z,6.12
2022-11-28T10:54:58.251Z,6.18
2022-11-28T10:57:40.755Z,6.09
2022-11-28T11:00:14.709Z,6.26
2022-11-28T11:02:49.271Z,6.34
2022-11-28T11:05:23.027Z,6.39
2022-11-28T11:07:57.233Z,6.38
2022-11-28T11:10:34.645Z,6.31
2022-11-28T11:13:17.038Z,6.31
2022-11-28T11:15:50.283Z,6.30
2022-11-28T11:18:27.445Z,6.45
2022-11-28T11:21:16.580Z,6.26
2022-11-28T11:23:50.243Z,6.36
2022-11-28T11:26:30.203Z,6.11
2022-11-28T11:29:02.285Z,6.02
2022-11-28T11:31:43.136Z,6.00
2022-11-28T11:34:19.013Z,6.13
2022-11-28T11:36:51.506Z,6.10
2022-11-28T11:39:25.498Z,6.35
2022-11-28T11:42:20.780Z,6.51
2022-11-28T11:44:55.319Z,6.75
2022-11-28T11:47:44.672Z,6.93
2022-11-28T11:50:20.442Z,6.96
2022-11-28T11:53:06.389Z,6.95
2022-11-28T11:55:47.445Z,6.86
2022-11-28T11:58:24.613Z,6.69
2022-11-28T12:01:00.896Z,6.45
2022-11-28T12:03:39.207Z,6.46
2022-11-28T12:06:17.193Z,6.37
2022-11-28T12:08:53.089Z,6.23
2022-11-28T12:11:29.189Z,6.35
2022-11-28T12:14:05.800Z,6.58
2022-11-28T12:16:49.599Z,6.41
2022-11-28T12:19:29.373Z,6.33
2022-11-28T12:22:12.134Z,6.67
2022-11-28T12:24:55.464Z,6.82
2022-11-28T12:27:41.541Z,6.78
2022-11-28T12:30:26.189Z,6.79
2022-11-28T12:33:12.579Z,6.85
2022-11-28T12:35:48.150Z,7.03
2022-11-28T12:38:32.478Z,7.11
2022-11-28T12:41:32.033Z,7.02
2022-11-28T12:44:14.593Z,6.77
2022-11-28T12:46:53.912Z,6.61
2022-11-28T12:49:36.870Z,6.47
2022-11-28T12:52:18.476Z,6.43
2022-11-28T12:55:05.037Z,6.55
2022-11-28T12:57:43.783Z,6.60
2022-11-28T13:00:20.998Z,6.55
2022-11-28T13:03:06.920Z,6.73
2022-11-28T13:05:49.033Z,6.69
2022-11-28T13:08:34.825Z,6.71
2022-11-28T13:11:20.358Z,6.64
2022-11-28T13:13:59.744Z,6.60
2022-11-28T13:16:42.343Z,6.56
2022-11-28T13:19:24.927Z,6.51
2022-11-28T13:22:03.487Z,6.53
2022-11-28T13:24:43.841Z,6.43
2022-11-28T13:27:22.733Z,6.36
2022-11-28T13:30:10.095Z,6.36
2022-11-28T13:32:52.168Z,6.35
2022-11-28T13:35:26.097Z,6.13
2022-11-28T13:41:05.003Z,6.14
2022-11-28T13:43:47.999Z,6.13
2022-11-28T13:46:20.424Z,6.08
2022-11-28T13:49:14.418Z,6.00
2022-11-28T13:51:47.781Z,6.07
2022-11-28T13:54:48.262Z,5.98
2022-11-28T13:57:26.895Z,5.89
2022-11-28T14:00:04.625Z,5.86
2022-11-28T14:02:50.880Z,5.83
2022-11-28T14:05:36.329Z,5.73
2022-11-28T14:08:09.059Z,5.55
2022-11-28T14:11:27.236Z,5.60
2022-11-28T14:14:15.343Z,5.51
2022-11-28T14:17:02.673Z,5.49
2022-11-28T14:19:53.936Z,5.51
2022-11-28T14:22:42.410Z,5.52
2022-11-28T14:25:21.293Z,5.47
2022-11-28T14:27:58.137Z,5.43
2022-11-28T14:30:35.193Z,5.40
2022-11-28T14:33:16.961Z,5.28
2022-11-28T14:36:34.769Z,5.26
2022-11-28T14:39:13.582Z,5.20
2022-11-28T14:42:58.376Z,5.23
2022-11-28T14:45:42.195Z,5.02
2022-11-28T14:48:32.211Z,4.81
2022-11-28T14:51:04.140Z,4.89
2022-11-28T14:53:48.022Z,4.85
2022-11-28T14:56:27.515Z,4.87
2022-11-28T14:59:03.633Z,4.82
2022-11-28T15:01:53.166Z,4.79
2022-11-28T15:04:52.288Z,4.82
2022-11-28T15:07:46.186Z,4.74
2022-11-28T15:10:25.011Z,4.75
2022-11-28T15:13:08.725Z,4.71
2022-11-28T15:15:49.890Z,4.51
2022-11-28T15:18:24.675Z,4.46
2022-11-28T15:21:02.154Z,4.54
2022-11-28T15:23:38.465Z,4.48
2022-11-28T15:26:21.611Z,4.42
2022-11-28T15:29:12.190Z,4.36
2022-11-28T15:31:44.709Z,4.23
2022-11-28T15:34:26.870Z,4.16
2022-11-28T15:37:01.481Z,4.26
2022-11-28T15:39:42.267Z,4.30
2022-11-28T15:42:23.858Z,4.14
2022-11-28T15:44:59.268Z,4.19
2022-11-28T15:47:31.130Z,4.19
2022-11-28T15:50:14.557Z,4.17
2022-11-28T15:52:58.336Z,4.17
2022-11-28T15:55:35.067Z,4.27
2022-11-28T15:58:19.447Z,4.04
2022-11-28T16:00:55.775Z,4.07
2022-11-28T16:03:32.100Z,4.12
2022-11-28T16:06:06.871Z,4.11
2022-11-28T16:08:42.285Z,4.13
2022-11-28T16:11:20.072Z,4.06
2022-11-28T16:13:53.230Z,4.10
2022-11-28T16:16:29.192Z,4.15
2022-11-28T16:19:06.983Z,4.08
2022-11-28T16:21:44.710Z,4.15
2022-11-28T16:24:27.592Z,4.10
2022-11-28T16:27:00.136Z,4.05
2022-11-28T16:29:35.150Z,4.06
2022-11-28T16:32:22.949Z,4.13
2022-11-28T16:34:57.213Z,4.19
2022-11-28T16:37:31.049Z,4.19
2022-11-28T16:40:06.763Z,4.07
2022-11-28T16:42:38.597Z,3.97
2022-11-28T16:45:30.787Z,3.96
2022-11-28T16:48:11.543Z,3.98
2022-11-28T16:51:14.376Z,3.96
2022-11-28T16:53:47.887Z,4.02
2022-11-28T16:56:43.456Z,4.02
2022-11-28T16:59:17.437Z,4.03
2022-11-28T17:01:53.135Z,4.04
2022-11-28T17:04:26.821Z,4.03
2022-11-28T17:07:05.290Z,4.01
2022-11-28T17:09:37.465Z,4.06
2022-11-28T17:12:15.857Z,3.94
2022-11-28T17:14:48.219Z,3.97
2022-11-28T17:17:23.260Z,4.03
2022-11-28T17:19:55.210Z,3.96
2022-11-28T17:22:34.865Z,4.04
2022-11-28T17:25:17.518Z,4.02
2022-11-28T17:27:49.683Z,4.03
2022-11-28T17:30:23.177Z,4.16
2022-11-28T17:32:56.720Z,4.07
2022-11-28T17:35:42.258Z,4.12
2022-11-28T17:38:27.281Z,4.11
2022-11-28T17:41:11.346Z,4.20
2022-11-28T17:43:50.137Z,4.17
2022-11-28T17:46:25.343Z,4.05
2022-11-28T17:49:04.605Z,4.17
2022-11-28T17:51:39.141Z,4.20
2022-11-28T17:54:16.494Z,4.16
2022-11-28T17:56:53.908Z,4.20
2022-11-28T17:59:38.245Z,4.21
2022-11-28T18:02:17.460Z,4.27
2022-11-28T18:04:56.221Z,4.24
2022-11-28T18:07:31.144Z,4.20
2022-11-28T18:10:04.723Z,4.27
2022-11-28T18:12:38.625Z,4.30
2022-11-28T18:15:16.301Z,4.34
2022-11-28T18:17:49.938Z,4.26
2022-11-28T18:20:23.788Z,4.28
2022-11-28T18:22:57.918Z,4.36
2022-11-28T18:25:33.750Z,4.39
2022-11-28T18:28:12.208Z,4.41
2022-11-28T18:30:49.765Z,4.47
2022-11-28T18:33:22.466Z,4.34
2022-11-28T18:35:58.322Z,4.46
2022-11-28T18:38:37.326Z,4.36
2022-11-28T18:41:19.249Z,4.25
2022-11-28T18:44:07.117Z,4.31
2022-11-28T18:46:54.174Z,4.34
2022-11-28T18:49:31.173Z,4.38
2022-11-28T18:52:05.405Z,4.43
2022-11-28T18:54:43.687Z,4.47
2022-11-28T18:57:25.501Z,4.49
2022-11-28T19:00:05.717Z,4.45
2022-11-28T19:02:40.962Z,4.47
2022-11-28T19:05:14.515Z,4.48
2022-11-28T19:07:46.958Z,4.49
2022-11-28T19:10:20.260Z,4.49
2022-11-28T19:12:52.316Z,4.48
2022-11-28T19:15:24.374Z,4.43
2022-11-28T19:17:56.669Z,4.44
2022-11-28T19:20:29.194Z,4.38
2022-11-28T19:23:01.323Z,4.52
2022-11-28T19:25:33.284Z,4.46
2022-11-28T19:28:05.273Z,4.39
2022-11-28T19:30:37.191Z,4.46
2022-11-28T19:33:09.003Z,4.42
2022-11-28T19:35:43.733Z,4.39
2022-11-28T19:38:15.643Z,4.49
2022-11-28T19:40:47.498Z,4.55
2022-11-28T19:43:19.251Z,4.54
2022-11-28T19:45:57.837Z,4.47
2022-11-28T19:48:31.234Z,4.49
2022-11-28T19:51:04.110Z,4.57
2022-11-28T19:53:38.591Z,4.50
2022-11-28T19:56:15.516Z,4.60
2022-11-28T19:58:48.129Z,4.52
2022-11-28T20:01:21.172Z,4.54
2022-11-28T20:03:56.676Z,4.56
2022-11-28T20:06:30.902Z,4.50
2022-11-28T20:09:05.653Z,4.51
2022-11-28T20:11:39.302Z,4.54
2022-11-28T20:14:14.838Z,4.49
2022-11-28T20:16:47.229Z,4.52
2022-11-28T20:19:20.295Z,4.59
2022-11-28T20:21:58.464Z,4.50
2022-11-28T20:24:30.755Z,4.36
2022-11-28T20:27:02.589Z,4.42
2022-11-28T20:29:34.335Z,4.52
2022-11-28T20:32:06.600Z,4.57
2022-11-28T20:34:38.305Z,4.45
2022-11-28T20:37:09.936Z,4.49
2022-11-28T20:39:41.941Z,4.51
2022-11-28T20:42:13.944Z,4.57
2022-11-28T20:44:45.757Z,4.56
2022-11-28T20:47:17.514Z,4.52
2022-11-28T20:49:49.583Z,4.52
2022-11-28T20:52:21.366Z,4.36
2022-11-28T20:54:53.136Z,4.39
2022-11-28T20:57:25.195Z,4.30
2022-11-28T20:59:57.501Z,4.37
2022-11-28T21:02:29.345Z,4.40
2022-11-28T21:05:01.589Z,4.41
2022-11-28T21:07:33.411Z,4.35
2022-11-28T21:10:05.623Z,4.34
2022-11-28T21:12:37.360Z,4.38
2022-11-28T21:15:10.876Z,4.36
2022-11-28T21:17:42.685Z,4.37
2022-11-28T21:20:15.265Z,4.22
2022-11-28T21:22:47.040Z,4.21
2022-11-28T21:25:19.313Z,4.18
2022-11-28T21:27:50.937Z,4.19
2022-11-28T21:30:23.517Z,4.21
2022-11-28T21:32:55.321Z,4.20
2022-11-28T21:35:27.342Z,4.21
2022-11-28T21:37:58.906Z,4.23
2022-11-28T21:40:31.175Z,4.17
2022-11-28T21:43:02.954Z,4.16
2022-11-28T21:45:36.475Z,4.08
2022-11-28T21:48:09.122Z,4.12
2022-11-28T21:50:48.727Z,4.11
2022-11-28T21:53:22.194Z,4.13
2022-11-28T21:55:55.220Z,4.11
2022-11-28T21:58:28.458Z,4.18
2022-11-28T22:01:04.158Z,4.17
2022-11-28T22:03:37.404Z,4.20
2022-11-28T22:06:15.799Z,4.17
2022-11-28T22:08:50.004Z,4.14
2022-11-28T22:11:24.288Z,4.17
2022-11-28T22:13:56.981Z,4.21
2022-11-28T22:16:30.341Z,4.10
2022-11-28T22:19:04.105Z,4.10
2022-11-28T22:21:56.483Z,4.10
2022-11-28T22:24:29.428Z,4.11
2022-11-28T22:27:01.239Z,4.27
2022-11-28T22:29:33.055Z,4.26
2022-11-28T22:32:05.057Z,4.27
2022-11-28T22:34:39.907Z,4.29
2022-11-28T22:37:12.736Z,4.25
2022-11-28T22:39:44.596Z,4.27
2022-11-28T22:42:16.435Z,4.33
2022-11-28T22:44:49.638Z,4.32
2022-11-28T22:47:21.446Z,4.40
2022-11-28T22:49:53.071Z,4.38
2022-11-28T22:52:25.554Z,4.33
2022-11-28T22:54:57.512Z,4.33
2022-11-28T22:57:29.372Z,4.43
2022-11-28T23:00:01.730Z,4.41
2022-11-28T23:02:33.583Z,4.48
2022-11-28T23:05:06.339Z,4.30
2022-11-28T23:07:38.408Z,4.32
2022-11-28T23:10:12.070Z,4.31
2022-11-28T23:12:42.142Z,4.39
2022-11-28T23:15:13.917Z,4.36
2022-11-28T23:17:46.221Z,4.38
2022-11-28T23:20:18.237Z,4.46
2022-11-28T23:22:50.329Z,4.48
2022-11-28T23:25:22.262Z,4.48
2022-11-28T23:27:54.250Z,4.50
2022-11-28T23:30:26.384Z,4.50
2022-11-28T23:32:58.074Z,4.54
2022-11-28T23:35:30.597Z,4.52
2022-11-28T23:38:02.248Z,4.47
2022-11-28T23:40:34.106Z,4.52
2022-11-28T23:43:05.806Z,4.44
2022-11-28T23:45:37.732Z,4.36
2022-11-28T23:48:09.764Z,4.41
2022-11-28T23:50:41.482Z,4.45
2022-11-28T23:53:13.913Z,4.54
2022-11-28T23:55:46.220Z,4.53
2022-11-28T23:58:18.210Z,4.55
